Time;durP1;ratioP1;P1;durP2;ratioP2;P2;SDS_P1;SDS_P2;PMS_P1;PMS_P2;Temp;Humidity;BMP_temperature;BMP_pressure;BME280_temperature;BME280_humidity;BME280_pressure;Samples;Min_cycle;Max_cycle;Signal;HPM_P1;HPM_P2
2020/12/30 00:00:26;;;;;;;9.20;6.13;;;3.80;99.90;;;;;;5093307;28;20206;-42
2020/12/30 00:02:53;;;;;;;6.40;5.07;;;3.80;99.90;;;;;;5093045;28;20262;-40
2020/12/30 00:05:20;;;;;;;7.65;6.93;;;3.80;99.90;;;;;;5093349;28;20242;-39
2020/12/30 00:07:47;;;;;;;7.37;6.47;;;3.80;99.90;;;;;;5093047;28;20293;-41
2020/12/30 00:10:17;;;;;;;6.05;5.15;;;3.80;99.90;;;;;;5093081;28;20262;-40
2020/12/30 00:12:45;;;;;;;7.03;6.10;;;3.80;99.90;;;;;;5093280;28;20209;-40
2020/12/30 00:15:16;;;;;;;7.57;5.35;;;3.80;99.90;;;;;;5093289;28;20594;-40
2020/12/30 00:17:44;;;;;;;8.68;6.22;;;3.80;99.90;;;;;;5093381;28;20709;-42
2020/12/30 00:20:14;;;;;;;6.57;5.13;;;3.80;99.90;;;;;;5093255;28;20230;-41
2020/12/30 00:22:42;;;;;;;5.70;4.82;;;3.80;99.90;;;;;;5092627;28;20227;-40
2020/12/30 00:25:09;;;;;;;14.45;11.75;;;3.80;99.90;;;;;;5092565;28;20253;-40
2020/12/30 00:27:38;;;;;;;7.78;7.07;;;3.70;99.90;;;;;;5092742;28;20241;-39
2020/12/30 00:30:08;;;;;;;8.23;7.25;;;3.70;99.90;;;;;;5092725;28;20297;-41
2020/12/30 00:32:35;;;;;;;10.63;7.78;;;3.60;99.90;;;;;;5093037;28;20285;-41
2020/12/30 00:35:03;;;;;;;11.35;10.23;;;3.50;99.90;;;;;;5092604;28;20285;-40
2020/12/30 00:37:30;;;;;;;12.97;8.93;;;3.50;99.90;;;;;;5092598;28;20297;-40
2020/12/30 00:39:56;;;;;;;17.50;15.60;;;3.40;99.90;;;;;;5092591;28;20305;-40
2020/12/30 00:42:27;;;;;;;7.90;7.07;;;3.40;99.90;;;;;;5091941;28;20293;-40
2020/12/30 00:44:55;;;;;;;6.78;5.47;;;3.40;99.90;;;;;;5092624;28;20311;-40
2020/12/30 00:47:22;;;;;;;6.57;5.90;;;3.40;99.90;;;;;;5092608;28;20257;-41
2020/12/30 00:49:50;;;;;;;8.23;6.60;;;3.40;99.90;;;;;;5092393;28;20676;-39
2020/12/30 00:52:16;;;;;;;30.23;22.45;;;3.30;99.90;;;;;;5092246;28;20653;-41
2020/12/30 00:54:43;;;;;;;6.72;6.05;;;3.30;99.90;;;;;;5092512;28;20290;-41
2020/12/30 00:57:11;;;;;;;7.95;6.20;;;3.20;99.90;;;;;;5092378;28;20302;-40
2020/12/30 00:59:39;;;;;;;11.83;9.17;;;3.20;99.90;;;;;;5092304;28;20206;-41
2020/12/30 01:02:07;;;;;;;13.13;9.05;;;3.20;99.90;;;;;;5092473;28;20298;-41
2020/12/30 01:04:34;;;;;;;10.93;9.82;;;3.20;99.90;;;;;;5092068;28;20704;-41
2020/12/30 01:07:02;;;;;;;12.65;10.55;;;3.20;99.90;;;;;;5092290;28;20214;-40
2020/12/30 01:09:29;;;;;;;6.50;5.70;;;3.20;99.90;;;;;;5092316;28;20237;-41
2020/12/30 01:12:00;;;;;;;7.83;6.40;;;3.20;99.90;;;;;;5092003;28;20262;-41
2020/12/30 01:14:27;;;;;;;7.85;5.60;;;3.20;99.90;;;;;;5092257;28;20206;-40
2020/12/30 01:16:55;;;;;;;8.97;6.43;;;3.10;99.90;;;;;;5092041;28;20238;-41
2020/12/30 01:19:22;;;;;;;7.47;6.25;;;3.10;99.90;;;;;;5092331;28;20293;-41
2020/12/30 01:21:50;;;;;;;7.10;6.45;;;3.10;99.90;;;;;;5092149;28;20207;-41
2020/12/30 01:24:18;;;;;;;8.30;6.80;;;3.20;99.90;;;;;;5091798;28;20328;-41
2020/12/30 01:26:46;;;;;;;7.85;5.88;;;3.10;99.90;;;;;;5091980;28;20280;-40
2020/12/30 01:29:13;;;;;;;6.95;5.82;;;3.10;99.90;;;;;;5092165;28;20384;-39
2020/12/30 01:31:40;;;;;;;8.80;6.55;;;3.10;99.90;;;;;;5091906;28;20645;-39
2020/12/30 01:34:08;;;;;;;8.83;7.10;;;3.00;99.90;;;;;;5091418;28;20692;-41
2020/12/30 01:36:37;;;;;;;8.23;6.25;;;3.00;99.90;;;;;;5091944;28;20211;-41
2020/12/30 01:39:05;;;;;;;9.35;7.43;;;3.00;99.90;;;;;;5091809;28;20301;-40
2020/12/30 01:41:33;;;;;;;11.18;6.70;;;2.90;99.90;;;;;;5091750;28;20302;-41
2020/12/30 01:44:02;;;;;;;12.25;9.25;;;2.90;99.90;;;;;;5091647;28;20630;-41
2020/12/30 01:46:37;;;;;;;14.32;9.85;;;2.90;99.90;;;;;;5091752;28;20297;-41
2020/12/30 01:49:07;;;;;;;8.35;6.88;;;2.90;99.90;;;;;;5091718;28;20399;-41
2020/12/30 01:51:35;;;;;;;48.93;32.57;;;2.90;99.90;;;;;;5091785;28;20295;-41
2020/12/30 01:54:03;;;;;;;100.90;62.03;;;2.90;99.90;;;;;;5094034;28;20676;-41
2020/12/30 01:56:33;;;;;;;41.13;28.00;;;2.80;99.90;;;;;;5095537;28;20267;-42
2020/12/30 01:59:05;;;;;;;54.97;35.03;;;2.90;99.90;;;;;;5095770;28;20234;-41
2020/12/30 02:01:36;;;;;;;16.10;11.40;;;2.80;99.90;;;;;;5095835;28;20246;-41
2020/12/30 02:04:06;;;;;;;23.10;14.73;;;2.80;99.90;;;;;;5095433;28;20223;-43
2020/12/30 02:06:34;;;;;;;17.17;13.48;;;2.80;99.90;;;;;;5095576;28;20302;-40
2020/12/30 02:09:03;;;;;;;12.73;9.20;;;2.80;99.90;;;;;;5095443;28;20226;-41
2020/12/30 02:11:31;;;;;;;10.57;8.97;;;2.80;99.90;;;;;;5095141;28;20698;-41
2020/12/30 02:14:04;;;;;;;10.17;8.73;;;2.80;99.90;;;;;;5095321;28;20340;-41
2020/12/30 02:16:33;;;;;;;11.18;8.13;;;2.80;99.90;;;;;;5095281;28;20207;-41
2020/12/30 02:19:00;;;;;;;8.83;6.63;;;2.70;99.90;;;;;;5095279;28;20420;-41
2020/12/30 02:21:27;;;;;;;4.22;3.92;;;2.80;99.90;;;;;;5095022;28;20297;-40
2020/12/30 02:23:56;;;;;;;6.73;4.10;;;2.80;99.90;;;;;;5094921;28;20704;-41
2020/12/30 02:26:24;;;;;;;3.73;3.10;;;2.90;99.90;;;;;;5095317;28;20207;-40
2020/12/30 02:28:51;;;;;;;19.27;12.43;;;2.90;99.90;;;;;;5095208;28;20207;-41
2020/12/30 02:31:18;;;;;;;3.38;3.00;;;3.00;99.90;;;;;;5095137;28;20245;-40
2020/12/30 02:33:45;;;;;;;3.33;2.83;;;3.00;99.90;;;;;;5094956;28;20213;-40
2020/12/30 02:36:12;;;;;;;4.20;3.53;;;3.10;99.90;;;;;;5094798;28;20211;-41
2020/12/30 02:38:39;;;;;;;4.82;4.18;;;3.10;99.90;;;;;;5094715;28;20669;-41
2020/12/30 02:41:06;;;;;;;3.73;3.37;;;3.20;99.90;;;;;;5094758;28;20741;-39
2020/12/30 02:43:34;;;;;;;3.53;3.23;;;3.20;99.90;;;;;;5094906;28;20308;-40
2020/12/30 02:46:01;;;;;;;2.93;2.67;;;3.30;99.90;;;;;;5094823;28;20285;-40
2020/12/30 02:48:28;;;;;;;4.20;3.03;;;3.30;99.90;;;;;;5094457;28;20294;-40
2020/12/30 02:50:55;;;;;;;4.13;3.17;;;3.40;99.90;;;;;;5094273;28;20214;-40
2020/12/30 02:53:22;;;;;;;3.58;3.00;;;3.40;99.90;;;;;;5094526;28;20282;-40
2020/12/30 02:55:49;;;;;;;3.80;3.47;;;3.40;99.90;;;;;;5094321;28;20203;-40
2020/12/30 02:58:16;;;;;;;3.72;3.15;;;3.30;99.90;;;;;;5094526;28;20289;-40
2020/12/30 03:00:44;;;;;;;4.43;3.58;;;3.30;99.90;;;;;;5094230;28;20211;-40
2020/12/30 03:03:11;;;;;;;4.13;3.83;;;3.10;99.90;;;;;;5094368;28;20563;-40
2020/12/30 03:05:39;;;;;;;5.25;3.35;;;3.10;99.90;;;;;;5093860;28;20206;-40
2020/12/30 03:08:06;;;;;;;4.43;3.40;;;3.10;99.90;;;;;;5094238;28;20354;-40
2020/12/30 03:10:33;;;;;;;5.68;3.78;;;3.00;99.90;;;;;;5093929;28;20653;-40
2020/12/30 03:13:00;;;;;;;4.20;3.80;;;3.00;99.90;;;;;;5094034;28;20259;-41
2020/12/30 03:15:28;;;;;;;4.83;4.00;;;2.90;99.90;;;;;;5093977;28;20283;-40
2020/12/30 03:17:55;;;;;;;4.80;4.40;;;2.80;99.90;;;;;;5093878;28;20285;-40
2020/12/30 03:20:22;;;;;;;4.38;3.97;;;2.90;99.90;;;;;;5094133;28;20668;-40
2020/12/30 03:22:49;;;;;;;4.87;4.27;;;2.80;99.90;;;;;;5093713;28;20293;-40
2020/12/30 03:25:17;;;;;;;4.38;3.95;;;2.80;99.90;;;;;;5093757;28;20211;-40
2020/12/30 03:27:44;;;;;;;5.38;4.85;;;2.80;99.90;;;;;;5093666;28;20253;-40
2020/12/30 03:30:11;;;;;;;4.55;4.15;;;2.80;99.90;;;;;;5093718;28;20238;-40
2020/12/30 03:32:38;;;;;;;4.07;3.67;;;2.70;99.90;;;;;;5093625;28;20275;-40
2020/12/30 03:35:06;;;;;;;4.30;3.87;;;2.70;99.90;;;;;;5093852;28;20783;-40
2020/12/30 03:37:33;;;;;;;3.85;3.55;;;2.70;99.90;;;;;;5093858;28;20207;-40
2020/12/30 03:40:00;;;;;;;5.00;3.83;;;2.60;99.90;;;;;;5093608;28;20242;-40
2020/12/30 03:42:27;;;;;;;4.90;4.32;;;2.70;99.90;;;;;;5093587;28;20218;-40
2020/12/30 03:44:54;;;;;;;6.20;5.25;;;2.60;99.90;;;;;;5092222;28;20250;-40
2020/12/30 03:47:21;;;;;;;4.53;3.92;;;2.60;99.90;;;;;;5093570;28;20600;-40
2020/12/30 03:49:48;;;;;;;7.07;4.60;;;2.60;99.90;;;;;;5093255;28;20249;-41
2020/12/30 03:52:17;;;;;;;5.10;3.88;;;2.60;99.90;;;;;;5093420;28;20254;-40
2020/12/30 03:54:44;;;;;;;3.60;3.30;;;2.60;99.90;;;;;;5093355;28;20555;-41
2020/12/30 03:57:11;;;;;;;3.83;3.50;;;2.60;99.90;;;;;;5093175;28;20234;-40
2020/12/30 03:59:38;;;;;;;3.95;3.55;;;2.60;99.90;;;;;;5093290;28;20257;-45
2020/12/30 04:02:05;;;;;;;5.85;3.67;;;2.60;99.90;;;;;;5093281;28;20288;-43
2020/12/30 04:04:32;;;;;;;3.58;3.28;;;2.60;99.90;;;;;;5093396;28;20317;-42
2020/12/30 04:06:59;;;;;;;3.00;2.80;;;2.50;99.90;;;;;;5093189;28;20265;-45
2020/12/30 04:09:27;;;;;;;3.92;3.15;;;2.50;99.90;;;;;;5093193;28;20206;-42
2020/12/30 04:11:54;;;;;;;3.50;3.20;;;2.50;99.90;;;;;;5092987;28;20321;-45
2020/12/30 04:14:21;;;;;;;4.45;3.47;;;2.50;99.90;;;;;;5093213;28;20297;-43
2020/12/30 04:16:48;;;;;;;4.80;3.45;;;2.50;99.90;;;;;;5092265;28;20710;-44
2020/12/30 04:19:15;;;;;;;3.20;2.70;;;2.50;99.90;;;;;;5092811;28;20737;-43
2020/12/30 04:21:42;;;;;;;4.40;3.50;;;2.50;99.90;;;;;;5092863;28;20293;-44
2020/12/30 04:24:09;;;;;;;3.22;2.92;;;2.40;99.90;;;;;;5092578;28;20779;-43
2020/12/30 04:26:37;;;;;;;4.57;3.03;;;2.40;99.90;;;;;;5092566;28;20263;-45
2020/12/30 04:29:05;;;;;;;4.73;3.10;;;2.40;99.90;;;;;;5092973;28;20206;-43
2020/12/30 04:31:32;;;;;;;4.03;3.60;;;2.40;99.90;;;;;;5092660;28;20256;-43
2020/12/30 04:33:59;;;;;;;4.77;3.80;;;2.40;99.90;;;;;;5092509;28;20238;-45
2020/12/30 04:36:26;;;;;;;3.70;3.40;;;2.40;99.90;;;;;;5092467;28;20259;-44
2020/12/30 04:38:53;;;;;;;4.17;3.70;;;2.40;99.90;;;;;;5092316;28;20303;-45
2020/12/30 04:41:27;;;;;;;4.60;3.73;;;2.40;99.90;;;;;;5092318;28;20207;-43
2020/12/30 04:43:57;;;;;;;3.92;3.42;;;2.40;99.90;;;;;;5092183;28;20707;-43
2020/12/30 04:46:26;;;;;;;3.58;3.20;;;2.40;99.90;;;;;;5092539;28;20213;-43
2020/12/30 04:48:54;;;;;;;3.38;2.78;;;2.40;99.90;;;;;;5092324;28;20305;-43
2020/12/30 04:51:22;;;;;;;5.57;3.33;;;2.40;99.90;;;;;;5092435;28;20252;-45
2020/12/30 04:53:51;;;;;;;4.60;3.43;;;2.40;99.90;;;;;;5092354;28;20251;-39
2020/12/30 04:56:37;;;;;;;3.63;3.15;;;2.50;99.90;;;;;;5092575;28;20624;-40
2020/12/30 04:59:10;;;;;;;3.58;3.17;;;2.50;99.90;;;;;;5092596;28;20206;-40
2020/12/30 05:01:54;;;;;;;3.63;3.33;;;2.50;99.90;;;;;;5092287;28;20202;-40
2020/12/30 05:04:23;;;;;;;3.50;3.08;;;2.50;99.90;;;;;;5092163;28;20344;-40
2020/12/30 05:06:50;;;;;;;4.47;2.90;;;2.50;99.90;;;;;;5092352;28;20210;-40
2020/12/30 05:09:20;;;;;;;3.80;3.05;;;2.50;99.90;;;;;;5092277;28;20206;-40
2020/12/30 05:11:47;;;;;;;4.07;3.40;;;2.50;99.90;;;;;;5091936;28;20341;-40
2020/12/30 05:14:15;;;;;;;4.82;2.97;;;2.40;99.90;;;;;;5092197;28;20207;-41
2020/12/30 05:16:42;;;;;;;5.10;3.13;;;2.40;99.90;;;;;;5092017;28;20203;-40
2020/12/30 05:19:09;;;;;;;4.40;3.27;;;2.30;99.90;;;;;;5091976;28;20306;-40
2020/12/30 05:21:36;;;;;;;4.90;3.60;;;2.30;99.90;;;;;;5092251;28;20214;-40
2020/12/30 05:24:05;;;;;;;3.60;3.27;;;2.30;99.90;;;;;;5092077;28;20429;-40
2020/12/30 05:26:32;;;;;;;4.05;3.55;;;2.30;99.90;;;;;;5092120;28;20306;-40
2020/12/30 05:29:00;;;;;;;3.67;3.03;;;2.30;99.90;;;;;;5096031;28;20301;-40
2020/12/30 05:31:29;;;;;;;4.28;3.80;;;2.30;99.90;;;;;;5096134;28;20625;-40
2020/12/30 05:33:56;;;;;;;2.75;2.55;;;2.20;99.90;;;;;;5096212;28;20584;-40
2020/12/30 05:36:25;;;;;;;4.90;2.97;;;2.20;99.90;;;;;;5096254;28;20234;-40
2020/12/30 05:38:53;;;;;;;2.88;2.67;;;2.20;99.90;;;;;;5095950;28;20210;-41
2020/12/30 05:41:21;;;;;;;3.23;2.93;;;2.10;99.90;;;;;;5096006;28;20301;-41
2020/12/30 05:43:48;;;;;;;3.55;3.00;;;2.10;99.90;;;;;;5095793;28;20223;-41
2020/12/30 05:46:27;;;;;;;3.58;3.05;;;2.10;99.90;;;;;;5096014;28;20222;-39
2020/12/30 05:48:54;;;;;;;3.28;2.97;;;2.10;99.90;;;;;;5095863;28;20206;-40
2020/12/30 05:51:30;;;;;;;5.47;3.28;;;2.20;99.90;;;;;;5095909;28;20214;-40
2020/12/30 05:54:18;;;;;;;3.88;3.05;;;2.20;99.90;;;;;;5095773;28;20228;-42
2020/12/30 05:56:45;;;;;;;3.95;2.92;;;2.20;99.90;;;;;;5092249;28;20261;-46
2020/12/30 05:59:13;;;;;;;3.17;2.87;;;2.20;99.90;;;;;;5095849;28;20576;-47
2020/12/30 06:01:46;;;;;;;3.22;2.78;;;2.20;99.90;;;;;;5095756;28;20241;-43
2020/12/30 06:04:19;;;;;;;3.35;3.05;;;2.30;99.90;;;;;;5095486;28;20269;-43
2020/12/30 06:06:47;;;;;;;3.40;3.10;;;2.40;99.90;;;;;;5095261;28;20215;-44
2020/12/30 06:09:17;;;;;;;2.95;2.65;;;2.40;99.90;;;;;;5095599;28;20213;-44
2020/12/30 06:11:53;;;;;;;3.20;2.90;;;2.60;99.90;;;;;;5095273;28;20292;-44
2020/12/30 06:14:20;;;;;;;5.85;3.88;;;2.70;99.90;;;;;;5095326;28;20289;-47
2020/12/30 06:16:49;;;;;;;3.97;2.93;;;2.80;99.90;;;;;;5095185;28;20281;-45
2020/12/30 06:19:16;;;;;;;4.80;3.17;;;2.80;99.90;;;;;;5095045;28;20211;-43
2020/12/30 06:21:44;;;;;;;4.35;2.90;;;2.90;99.90;;;;;;5095320;28;20207;-42
2020/12/30 06:24:13;;;;;;;3.50;3.20;;;2.90;99.90;;;;;;5095013;28;20261;-40
2020/12/30 06:26:41;;;;;;;10.88;3.20;;;3.00;99.90;;;;;;5095179;28;20241;-46
2020/12/30 06:29:12;;;;;;;4.95;3.42;;;3.00;99.90;;;;;;5095067;28;20605;-47
2020/12/30 06:31:44;;;;;;;4.87;3.10;;;3.10;99.90;;;;;;5094831;28;20611;-48
2020/12/30 06:34:12;;;;;;;3.10;2.87;;;3.10;99.90;;;;;;5095253;28;20191;-43
2020/12/30 06:36:40;;;;;;;3.30;3.00;;;3.10;99.90;;;;;;5094741;28;20369;-42
2020/12/30 06:39:20;;;;;;;3.92;3.50;;;3.10;99.90;;;;;;5094007;28;20306;-42
2020/12/30 06:42:01;;;;;;;3.15;2.83;;;3.00;99.90;;;;;;5094518;28;20363;-43
2020/12/30 06:44:39;;;;;;;4.28;3.30;;;3.00;99.90;;;;;;5094388;28;20739;-41
2020/12/30 06:47:08;;;;;;;4.37;3.00;;;3.00;99.90;;;;;;5094737;28;20380;-40
2020/12/30 06:49:37;;;;;;;4.35;3.75;;;2.90;99.90;;;;;;5094922;28;20218;-40
2020/12/30 06:52:24;;;;;;;24.15;15.45;;;3.00;99.90;;;;;;5094677;28;20221;-41
2020/12/30 06:54:51;;;;;;;45.85;24.45;;;3.00;99.90;;;;;;5094626;28;20278;-41
2020/12/30 06:57:36;;;;;;;21.38;11.35;;;3.00;99.90;;;;;;5094599;28;20210;-41
2020/12/30 07:00:46;;;;;;;6.72;4.65;;;3.00;99.90;;;;;;5094382;28;20289;-41
2020/12/30 07:03:15;;;;;;;6.13;4.00;;;3.00;99.90;;;;;;5083805;28;20293;-41
2020/12/30 07:05:44;;;;;;;4.40;3.97;;;3.00;99.90;;;;;;5094316;28;20237;-42
2020/12/30 07:08:12;;;;;;;3.80;3.50;;;3.10;99.90;;;;;;5094230;28;20245;-41
2020/12/30 07:10:43;;;;;;;4.90;3.70;;;3.10;99.90;;;;;;5093982;28;20329;-41
2020/12/30 07:13:10;;;;;;;5.20;3.80;;;3.10;99.90;;;;;;5094241;28;20750;-41
2020/12/30 07:15:37;;;;;;;5.65;4.43;;;3.10;99.90;;;;;;5094418;28;20264;-41
2020/12/30 07:18:05;;;;;;;6.15;3.22;;;3.10;99.90;;;;;;5094040;28;20264;-41
2020/12/30 07:20:42;;;;;;;3.93;3.23;;;3.10;99.90;;;;;;5093961;28;20236;-41
2020/12/30 07:23:10;;;;;;;3.85;3.55;;;3.20;99.90;;;;;;5094123;28;20202;-40
2020/12/30 07:25:38;;;;;;;5.57;5.03;;;3.10;99.90;;;;;;5093805;28;20258;-41
2020/12/30 07:28:05;;;;;;;6.97;5.03;;;3.10;99.90;;;;;;5093853;28;20218;-41
2020/12/30 07:30:33;;;;;;;7.63;5.27;;;3.00;99.90;;;;;;5093674;28;20210;-41
2020/12/30 07:33:01;;;;;;;8.52;3.97;;;2.90;99.90;;;;;;5093512;28;20210;-41
2020/12/30 07:35:28;;;;;;;4.43;4.03;;;2.80;99.90;;;;;;5093663;28;20291;-42
2020/12/30 07:38:01;;;;;;;5.38;4.45;;;2.80;99.90;;;;;;5093437;28;20211;-42
2020/12/30 07:40:28;;;;;;;6.07;5.30;;;2.70;99.90;;;;;;5093596;28;20297;-42
2020/12/30 07:42:57;;;;;;;5.40;4.82;;;2.70;99.90;;;;;;5093878;28;20207;-43
2020/12/30 07:45:24;;;;;;;6.20;4.80;;;2.60;99.90;;;;;;5093600;28;20230;-42
2020/12/30 07:47:51;;;;;;;5.75;5.13;;;2.50;99.90;;;;;;5093679;28;20242;-41
2020/12/30 07:50:18;;;;;;;7.07;6.40;;;2.50;99.90;;;;;;5092896;28;20203;-40
2020/12/30 07:52:51;;;;;;;9.40;8.27;;;2.50;99.90;;;;;;5093098;28;20302;-39
2020/12/30 07:55:26;;;;;;;9.13;8.27;;;2.50;99.90;;;;;;5093537;28;20207;-41
2020/12/30 07:57:56;;;;;;;9.55;8.25;;;2.50;99.90;;;;;;5093562;28;20619;-42
2020/12/30 08:00:23;;;;;;;8.77;7.37;;;2.50;99.90;;;;;;5093531;28;20297;-42
2020/12/30 08:02:55;;;;;;;7.60;6.90;;;2.50;99.90;;;;;;5093270;28;20252;-42
2020/12/30 08:05:22;;;;;;;7.85;7.10;;;2.50;99.90;;;;;;5092900;28;20231;-42
2020/12/30 08:07:49;;;;;;;8.23;6.57;;;2.50;99.90;;;;;;5093288;28;20297;-43
2020/12/30 08:10:22;;;;;;;7.00;6.40;;;2.60;99.90;;;;;;5093097;28;20268;-43
2020/12/30 08:12:50;;;;;;;6.30;5.70;;;2.60;99.90;;;;;;5093080;28;20228;-43
2020/12/30 08:15:17;;;;;;;8.60;6.13;;;2.70;99.90;;;;;;5092847;28;20245;-41
2020/12/30 08:17:44;;;;;;;6.97;5.55;;;2.80;99.90;;;;;;5092894;28;20213;-40
2020/12/30 08:20:12;;;;;;;7.80;5.03;;;2.80;99.90;;;;;;5092156;28;20206;-41
2020/12/30 08:22:39;;;;;;;5.95;5.28;;;2.90;99.90;;;;;;5092714;28;20725;-41
2020/12/30 08:25:06;;;;;;;7.18;4.63;;;3.00;99.90;;;;;;5092624;28;20599;-41
2020/12/30 08:27:33;;;;;;;8.27;5.13;;;3.10;99.90;;;;;;5092999;28;20242;-39
2020/12/30 08:30:02;;;;;;;6.47;4.90;;;3.20;99.90;;;;;;5092569;28;20214;-42
2020/12/30 08:32:47;;;;;;;5.57;4.95;;;3.20;99.90;;;;;;5092587;28;20246;-41
2020/12/30 08:35:17;;;;;;;5.23;4.73;;;3.20;99.90;;;;;;5092726;28;20290;-42
2020/12/30 08:37:51;;;;;;;5.35;4.85;;;3.20;99.90;;;;;;5092493;28;20214;-41
2020/12/30 08:40:22;;;;;;;5.90;4.95;;;3.20;99.90;;;;;;5092515;28;20206;-41
2020/12/30 08:43:20;;;;;;;7.85;5.75;;;3.20;99.90;;;;;;5092554;28;20210;-43
2020/12/30 08:46:05;;;;;;;7.27;6.57;;;3.30;99.90;;;;;;5092605;28;20321;-40
2020/12/30 08:48:35;;;;;;;5.93;5.43;;;3.30;99.90;;;;;;5092393;28;20559;-41
2020/12/30 08:51:03;;;;;;;11.10;7.78;;;3.30;99.90;;;;;;5092408;28;20642;-40
2020/12/30 08:53:35;;;;;;;8.68;6.72;;;3.40;99.90;;;;;;5092247;28;20222;-40
2020/12/30 08:56:04;;;;;;;6.75;6.03;;;3.50;99.90;;;;;;5092104;28;20302;-39
2020/12/30 08:58:32;;;;;;;5.73;5.23;;;3.60;99.90;;;;;;5092133;28;20516;-40
2020/12/30 09:01:00;;;;;;;6.50;5.25;;;3.60;99.90;;;;;;5092305;28;20234;-40
2020/12/30 09:03:28;;;;;;;5.50;4.55;;;3.70;99.90;;;;;;5091925;28;20330;-40
2020/12/30 09:05:56;;;;;;;4.50;4.10;;;3.70;99.90;;;;;;5092005;28;20258;-39
2020/12/30 09:08:24;;;;;;;4.60;4.20;;;3.80;99.90;;;;;;5092082;28;20241;-40
2020/12/30 09:10:52;;;;;;;5.45;3.95;;;3.90;99.90;;;;;;5091825;28;20235;-40
2020/12/30 09:13:22;;;;;;;5.47;4.53;;;3.90;99.90;;;;;;5092034;28;20302;-40
2020/12/30 09:15:54;;;;;;;4.05;3.63;;;4.00;99.90;;;;;;5091652;28;20199;-39
2020/12/30 09:18:23;;;;;;;4.07;3.70;;;4.00;99.90;;;;;;5091675;28;20229;-40
2020/12/30 09:20:51;;;;;;;3.78;3.45;;;4.00;99.90;;;;;;5091891;28;20298;-39
2020/12/30 09:23:22;;;;;;;4.32;3.92;;;4.10;99.90;;;;;;5091746;28;20213;-40
2020/12/30 09:25:50;;;;;;;3.78;3.42;;;4.10;99.90;;;;;;5091624;28;20223;-39
2020/12/30 09:28:18;;;;;;;4.05;3.38;;;4.10;99.90;;;;;;5091622;28;20310;-40
2020/12/30 09:30:45;;;;;;;6.60;3.50;;;4.20;99.90;;;;;;5091432;28;20697;-40
2020/12/30 09:33:13;;;;;;;3.72;3.42;;;4.20;99.90;;;;;;5091959;28;20206;-40
2020/12/30 09:35:42;;;;;;;9.37;6.70;;;4.20;99.90;;;;;;5091839;28;20298;-40
2020/12/30 09:38:09;;;;;;;5.57;4.60;;;4.30;99.90;;;;;;5091574;28;20293;-40
2020/12/30 09:40:43;;;;;;;5.77;3.77;;;4.30;99.90;;;;;;5092141;28;20241;-41
2020/12/30 09:43:12;;;;;;;4.35;3.95;;;4.30;99.90;;;;;;5091806;28;20302;-40
2020/12/30 09:45:39;;;;;;;5.53;4.63;;;4.30;99.90;;;;;;5091748;28;20273;-39
2020/12/30 09:48:12;;;;;;;4.68;4.28;;;4.30;99.90;;;;;;5091797;28;20207;-37
2020/12/30 09:50:40;;;;;;;4.88;4.38;;;4.30;99.90;;;;;;5091657;28;20317;-39
2020/12/30 09:53:08;;;;;;;7.32;4.28;;;4.40;99.90;;;;;;5091558;28;20234;-39
2020/12/30 09:55:35;;;;;;;5.55;5.05;;;4.40;99.90;;;;;;5091725;28;20294;-40
2020/12/30 09:58:03;;;;;;;6.90;4.82;;;4.50;99.90;;;;;;5092031;28;20400;-40
2020/12/30 10:00:30;;;;;;;7.35;5.95;;;4.60;99.90;;;;;;5091533;28;20671;-39
2020/12/30 10:02:57;;;;;;;7.88;5.90;;;4.70;99.90;;;;;;5091539;28;20314;-39
2020/12/30 10:05:24;;;;;;;7.15;6.43;;;4.80;99.90;;;;;;5091549;28;20322;-39
2020/12/30 10:07:52;;;;;;;8.13;7.32;;;4.90;99.90;;;;;;5091490;28;20228;-39
2020/12/30 10:10:19;;;;;;;18.52;14.02;;;5.00;99.90;;;;;;5091216;28;20245;-39
2020/12/30 10:12:48;;;;;;;6.00;4.45;;;5.10;99.90;;;;;;5091473;28;20215;-39
2020/12/30 10:15:17;;;;;;;6.07;5.35;;;5.10;99.90;;;;;;5094175;28;20293;-41
2020/12/30 10:17:45;;;;;;;5.35;4.85;;;5.00;99.90;;;;;;5095307;28;20642;-40
2020/12/30 10:20:12;;;;;;;6.88;4.70;;;5.10;99.90;;;;;;5095086;28;20660;-40
2020/12/30 10:22:40;;;;;;;8.25;7.30;;;5.10;99.90;;;;;;5095036;28;20206;-40
2020/12/30 10:25:12;;;;;;;6.15;5.55;;;5.20;99.90;;;;;;5094887;28;20783;-39
2020/12/30 10:27:39;;;;;;;8.68;5.75;;;5.30;99.90;;;;;;5095335;28;20210;-39
2020/12/30 10:30:07;;;;;;;9.32;5.60;;;5.30;99.90;;;;;;5094880;28;20665;-40
2020/12/30 10:32:34;;;;;;;7.50;5.85;;;5.40;99.90;;;;;;5095142;28;20230;-40
2020/12/30 10:35:02;;;;;;;10.75;7.90;;;5.60;99.90;;;;;;5094951;28;20202;-40
2020/12/30 10:37:29;;;;;;;9.68;6.22;;;5.80;99.90;;;;;;5094665;28;20708;-39
2020/12/30 10:39:57;;;;;;;8.35;7.32;;;6.00;99.90;;;;;;5095033;28;20216;-40
2020/12/30 10:42:25;;;;;;;6.97;5.57;;;6.10;99.90;;;;;;5094698;28;20698;-40
2020/12/30 10:44:52;;;;;;;4.18;3.78;;;6.20;99.90;;;;;;5094685;28;20328;-40
2020/12/30 10:47:20;;;;;;;4.65;3.88;;;6.20;99.90;;;;;;5094463;28;20256;-39
2020/12/30 10:49:47;;;;;;;3.38;3.08;;;6.20;99.90;;;;;;5095167;28;20217;-40
2020/12/30 10:52:14;;;;;;;5.40;4.28;;;6.20;99.90;;;;;;5094327;28;20211;-40
2020/12/30 10:54:46;;;;;;;6.68;4.78;;;6.10;99.90;;;;;;5094765;28;20226;-40
2020/12/30 10:57:13;;;;;;;6.22;4.18;;;6.00;99.90;;;;;;5094464;28;20206;-40
2020/12/30 10:59:41;;;;;;;5.90;3.92;;;5.90;99.90;;;;;;5094290;28;20238;-40
2020/12/30 11:02:08;;;;;;;3.75;3.25;;;5.80;99.90;;;;;;5094355;28;20211;-39
2020/12/30 11:04:35;;;;;;;4.68;4.28;;;5.80;99.90;;;;;;5094138;28;20222;-39
2020/12/30 11:07:02;;;;;;;4.45;3.88;;;5.70;99.90;;;;;;5094361;28;20289;-40
2020/12/30 11:09:29;;;;;;;5.32;3.88;;;5.70;99.90;;;;;;5094193;28;20203;-39
2020/12/30 11:11:57;;;;;;;3.42;3.13;;;5.70;99.90;;;;;;5093905;28;20300;-39
2020/12/30 11:14:26;;;;;;;3.65;3.30;;;5.60;99.90;;;;;;5094987;28;20230;-40
2020/12/30 11:16:54;;;;;;;4.47;3.67;;;5.40;99.90;;;;;;5094006;28;20206;-39
2020/12/30 11:19:21;;;;;;;6.18;4.20;;;5.40;99.90;;;;;;5093915;28;20234;-40
2020/12/30 11:21:52;;;;;;;4.97;4.53;;;5.40;99.90;;;;;;5093775;28;20252;-39
2020/12/30 11:24:19;;;;;;;4.85;3.80;;;5.40;99.90;;;;;;5093909;28;20238;-40
2020/12/30 11:26:46;;;;;;;4.80;3.53;;;5.40;99.90;;;;;;5093532;28;20305;-39
2020/12/30 11:29:13;;;;;;;5.55;4.55;;;5.40;99.90;;;;;;5093705;28;20292;-39
2020/12/30 11:31:40;;;;;;;6.18;4.10;;;5.30;99.90;;;;;;5093512;28;20281;-39
2020/12/30 11:34:08;;;;;;;4.93;4.13;;;5.40;99.90;;;;;;5093912;28;20284;-39
2020/12/30 11:36:35;;;;;;;5.45;3.95;;;5.50;99.90;;;;;;5093801;28;20297;-39
2020/12/30 11:39:02;;;;;;;6.00;4.38;;;5.50;99.90;;;;;;5093407;28;20207;-39
2020/12/30 11:41:29;;;;;;;8.02;4.22;;;5.60;99.90;;;;;;5093430;28;20289;-41
2020/12/30 11:43:56;;;;;;;6.90;5.22;;;5.60;99.90;;;;;;5093367;28;20238;-40
2020/12/30 11:46:25;;;;;;;6.00;5.40;;;5.60;99.90;;;;;;5093164;28;20270;-40
2020/12/30 11:48:53;;;;;;;4.93;4.07;;;5.80;99.90;;;;;;5093584;28;20211;-43
2020/12/30 11:51:21;;;;;;;6.78;4.65;;;5.90;99.90;;;;;;5093218;28;20224;-39
2020/12/30 11:53:48;;;;;;;7.87;5.20;;;5.90;99.90;;;;;;5092905;28;20206;-39
2020/12/30 11:56:20;;;;;;;5.80;5.18;;;5.90;99.90;;;;;;5093339;28;20249;-39
2020/12/30 11:58:47;;;;;;;5.63;5.05;;;5.90;99.90;;;;;;5093085;28;20293;-39
2020/12/30 12:01:14;;;;;;;4.50;4.10;;;6.00;99.90;;;;;;5093069;28;20206;-39
2020/12/30 12:03:41;;;;;;;5.63;5.13;;;6.00;99.90;;;;;;5073797;28;20218;-39
2020/12/30 12:06:08;;;;;;;4.88;4.30;;;6.00;99.90;;;;;;5081454;28;20329;-39
2020/12/30 12:08:36;;;;;;;5.80;4.35;;;6.10;99.90;;;;;;5092809;28;20245;-39
2020/12/30 12:11:03;;;;;;;7.05;5.47;;;6.20;99.90;;;;;;5092638;28;20787;-40
2020/12/30 12:13:31;;;;;;;5.50;5.00;;;6.40;99.90;;;;;;5092581;28;20218;-39
2020/12/30 12:15:58;;;;;;;5.43;4.93;;;6.60;99.90;;;;;;5092499;28;20245;-39
2020/12/30 12:18:25;;;;;;;6.85;4.95;;;6.80;99.90;;;;;;5092669;28;20207;-39
2020/12/30 12:20:52;;;;;;;5.70;5.18;;;7.00;99.80;;;;;;5092906;28;20237;-40
2020/12/30 12:23:19;;;;;;;4.82;4.15;;;7.10;99.40;;;;;;5092741;28;20232;-40
2020/12/30 12:25:46;;;;;;;6.35;4.80;;;7.20;99.30;;;;;;5092700;28;20231;-40
2020/12/30 12:28:13;;;;;;;4.35;3.67;;;7.20;99.20;;;;;;5092666;28;20234;-40
2020/12/30 12:30:40;;;;;;;5.13;4.50;;;7.20;99.20;;;;;;5092805;28;20241;-40
2020/12/30 12:33:07;;;;;;;5.05;4.15;;;7.10;99.20;;;;;;5092442;28;20238;-40
2020/12/30 12:35:34;;;;;;;4.25;3.47;;;7.00;99.20;;;;;;5092501;28;20252;-40
2020/12/30 12:38:06;;;;;;;3.95;3.58;;;7.00;99.40;;;;;;5091786;28;20234;-40
2020/12/30 12:40:34;;;;;;;5.65;4.45;;;6.90;99.40;;;;;;5092538;28;20652;-40
2020/12/30 12:43:02;;;;;;;5.22;3.97;;;6.80;99.40;;;;;;5092573;28;20238;-40
2020/12/30 12:45:32;;;;;;;7.57;5.97;;;6.80;99.60;;;;;;5092300;28;20252;-41
2020/12/30 12:47:59;;;;;;;7.78;6.18;;;6.70;99.60;;;;;;5092487;28;20633;-40
2020/12/30 12:50:26;;;;;;;6.40;5.70;;;6.60;99.60;;;;;;5092387;28;20297;-40
2020/12/30 12:52:53;;;;;;;5.55;4.68;;;6.60;99.90;;;;;;5092323;28;20281;-41
2020/12/30 12:55:21;;;;;;;6.90;5.18;;;6.60;99.60;;;;;;5092578;28;20326;-40
2020/12/30 12:57:48;;;;;;;3.67;3.05;;;6.50;99.40;;;;;;5092348;28;20257;-40
2020/12/30 13:00:15;;;;;;;4.47;3.30;;;6.60;99.40;;;;;;5092345;28;20280;-40
2020/12/30 13:02:42;;;;;;;4.03;3.47;;;6.60;99.30;;;;;;5091797;28;20641;-40